sensor_id;sensor_type;location;lat;lon;timestamp;pressure;altitude;pressure_sealevel;temperature;humidity
8294;BME280;4185;41.506;24.938;2022-12-26T00:01:48;94403.25;;;1.35;74.91
8294;BME280;4185;41.506;24.938;2022-12-26T00:04:16;94418.13;;;1.36;76.41
8294;BME280;4185;41.506;24.938;2022-12-26T00:06:43;94415.94;;;1.27;75.07
8294;BME280;4185;41.506;24.938;2022-12-26T00:09:10;94420.47;;;1.03;75.67
8294;BME280;4185;41.506;24.938;2022-12-26T00:11:37;94414.13;;;0.94;76.20
8294;BME280;4185;41.506;24.938;2022-12-26T00:14:06;94420.94;;;0.98;76.96
8294;BME280;4185;41.506;24.938;2022-12-26T00:16:33;94432.31;;;1.06;76.66
8294;BME280;4185;41.506;24.938;2022-12-26T00:19:02;94439.16;;;1.07;76.32
8294;BME280;4185;41.506;24.938;2022-12-26T00:21:30;94441.38;;;1.12;76.42
8294;BME280;4185;41.506;24.938;2022-12-26T00:23:57;94445.97;;;1.15;76.19
8294;BME280;4185;41.506;24.938;2022-12-26T00:26:26;94438.72;;;1.12;76.84
8294;BME280;4185;41.506;24.938;2022-12-26T00:28:55;94446.69;;;1.15;76.10
8294;BME280;4185;41.506;24.938;2022-12-26T00:31:24;94440.66;;;1.11;76.47
8294;BME280;4185;41.506;24.938;2022-12-26T00:33:52;94452.19;;;1.05;76.13
8294;BME280;4185;41.506;24.938;2022-12-26T00:36:21;94440.81;;;0.97;76.26
8294;BME280;4185;41.506;24.938;2022-12-26T00:38:50;94442.28;;;1.02;76.52
8294;BME280;4185;41.506;24.938;2022-12-26T00:41:18;94440.41;;;0.99;76.96
8294;BME280;4185;41.506;24.938;2022-12-26T00:43:46;94448.09;;;0.97;77.09
8294;BME280;4185;41.506;24.938;2022-12-26T00:46:13;94447.38;;;0.93;77.08
8294;BME280;4185;41.506;24.938;2022-12-26T00:48:39;94447.38;;;0.93;76.91
8294;BME280;4185;41.506;24.938;2022-12-26T00:51:06;94459.09;;;1.02;76.06
8294;BME280;4185;41.506;24.938;2022-12-26T00:53:35;94466.84;;;0.93;76.10
8294;BME280;4185;41.506;24.938;2022-12-26T00:56:02;94460.66;;;1.00;76.33
8294;BME280;4185;41.506;24.938;2022-12-26T00:58:29;94465.63;;;1.01;75.83
8294;BME280;4185;41.506;24.938;2022-12-26T01:01:04;94469.31;;;1.11;75.63
8294;BME280;4185;41.506;24.938;2022-12-26T01:03:31;94462.06;;;1.11;75.24
8294;BME280;4185;41.506;24.938;2022-12-26T01:06:01;94468.16;;;1.12;75.12
8294;BME280;4185;41.506;24.938;2022-12-26T01:08:28;94470.56;;;1.03;74.76
8294;BME280;4185;41.506;24.938;2022-12-26T01:10:56;94462.13;;;1.04;75.19
8294;BME280;4185;41.506;24.938;2022-12-26T01:13:24;94470.66;;;0.96;75.45
8294;BME280;4185;41.506;24.938;2022-12-26T01:15:51;94463.06;;;0.91;75.30
8294;BME280;4185;41.506;24.938;2022-12-26T01:18:19;94467.22;;;0.62;75.71
8294;BME280;4185;41.506;24.938;2022-12-26T01:20:46;94471.44;;;0.59;76.10
8294;BME280;4185;41.506;24.938;2022-12-26T01:23:14;94456.72;;;0.41;75.94
8294;BME280;4185;41.506;24.938;2022-12-26T01:25:41;94476.50;;;0.50;76.67
8294;BME280;4185;41.506;24.938;2022-12-26T01:28:09;94483.38;;;0.48;76.91
8294;BME280;4185;41.506;24.938;2022-12-26T01:30:36;94487.16;;;0.54;77.59
8294;BME280;4185;41.506;24.938;2022-12-26T01:33:03;94478.72;;;0.59;77.13
8294;BME280;4185;41.506;24.938;2022-12-26T01:35:30;94479.72;;;0.35;76.54
8294;BME280;4185;41.506;24.938;2022-12-26T01:37:57;94482.31;;;0.42;77.18
8294;BME280;4185;41.506;24.938;2022-12-26T01:40:24;94475.81;;;0.43;77.34
8294;BME280;4185;41.506;24.938;2022-12-26T01:42:51;94472.69;;;0.48;77.31
8294;BME280;4185;41.506;24.938;2022-12-26T01:45:25;94469.63;;;0.49;77.29
8294;BME280;4185;41.506;24.938;2022-12-26T01:47:57;94469.66;;;0.46;76.34
8294;BME280;4185;41.506;24.938;2022-12-26T01:50:30;94458.25;;;0.42;76.74
8294;BME280;4185;41.506;24.938;2022-12-26T01:53:03;94468.38;;;0.24;77.37
8294;BME280;4185;41.506;24.938;2022-12-26T01:55:32;94462.94;;;0.31;78.02
8294;BME280;4185;41.506;24.938;2022-12-26T01:58:01;94470.69;;;0.22;78.41
8294;BME280;4185;41.506;24.938;2022-12-26T02:00:32;94467.53;;;0.30;78.13
8294;BME280;4185;41.506;24.938;2022-12-26T02:02:59;94472.88;;;0.30;77.79
8294;BME280;4185;41.506;24.938;2022-12-26T02:05:41;94471.78;;;0.24;77.11
8294;BME280;4185;41.506;24.938;2022-12-26T02:08:11;94478.50;;;-0.02;77.30
8294;BME280;4185;41.506;24.938;2022-12-26T02:10:43;94479.66;;;-0.03;77.79
8294;BME280;4185;41.506;24.938;2022-12-26T02:13:12;94478.44;;;0.06;78.08
8294;BME280;4185;41.506;24.938;2022-12-26T02:15:41;94475.34;;;0.11;77.73
8294;BME280;4185;41.506;24.938;2022-12-26T02:18:08;94483.75;;;0.09;77.07
8294;BME280;4185;41.506;24.938;2022-12-26T02:20:40;94487.56;;;0.12;77.79
8294;BME280;4185;41.506;24.938;2022-12-26T02:23:39;94484.91;;;0.08;77.88
8294;BME280;4185;41.506;24.938;2022-12-26T02:29:41;94489.00;;;0.20;77.23
8294;BME280;4185;41.506;24.938;2022-12-26T02:32:21;94491.31;;;0.18;76.80
8294;BME280;4185;41.506;24.938;2022-12-26T02:34:58;94493.63;;;0.12;76.75
8294;BME280;4185;41.506;24.938;2022-12-26T02:37:41;94487.69;;;-0.06;77.53
8294;BME280;4185;41.506;24.938;2022-12-26T02:40:23;94497.34;;;-0.23;77.47
8294;BME280;4185;41.506;24.938;2022-12-26T02:42:57;94500.41;;;-0.21;78.46
8294;BME280;4185;41.506;24.938;2022-12-26T02:45:29;94503.41;;;-0.19;78.36
8294;BME280;4185;41.506;24.938;2022-12-26T02:48:22;94494.66;;;-0.16;77.79
8294;BME280;4185;41.506;24.938;2022-12-26T02:51:00;94498.84;;;-0.18;77.59
8294;BME280;4185;41.506;24.938;2022-12-26T02:53:58;94494.00;;;-0.34;77.38
8294;BME280;4185;41.506;24.938;2022-12-26T02:56:42;94493.28;;;-0.38;78.02
8294;BME280;4185;41.506;24.938;2022-12-26T02:59:31;94492.53;;;-0.42;77.76
8294;BME280;4185;41.506;24.938;2022-12-26T03:02:24;94504.78;;;-0.48;77.85
8294;BME280;4185;41.506;24.938;2022-12-26T03:05:17;94515.44;;;-0.44;78.70
8294;BME280;4185;41.506;24.938;2022-12-26T03:08:05;94510.13;;;-0.48;78.64
8294;BME280;4185;41.506;24.938;2022-12-26T03:11:01;94514.00;;;-0.63;80.61
8294;BME280;4185;41.506;24.938;2022-12-26T03:13:46;94511.69;;;-0.61;81.38
8294;BME280;4185;41.506;24.938;2022-12-26T03:16:16;94515.88;;;-0.56;81.23
8294;BME280;4185;41.506;24.938;2022-12-26T03:19:04;94520.00;;;-0.45;81.04
8294;BME280;4185;41.506;24.938;2022-12-26T03:21:36;94523.03;;;-0.43;80.92
8294;BME280;4185;41.506;24.938;2022-12-26T03:24:06;94524.50;;;-0.35;80.64
8294;BME280;4185;41.506;24.938;2022-12-26T03:26:36;94527.63;;;-0.43;80.00
8294;BME280;4185;41.506;24.938;2022-12-26T03:29:08;94523.09;;;-0.53;81.00
8294;BME280;4185;41.506;24.938;2022-12-26T03:31:53;94537.91;;;-0.45;81.43
8294;BME280;4185;41.506;24.938;2022-12-26T03:34:20;94525.31;;;-0.41;81.47
8294;BME280;4185;41.506;24.938;2022-12-26T03:37:16;94531.44;;;-0.41;80.63
8294;BME280;4185;41.506;24.938;2022-12-26T03:39:49;94522.31;;;-0.54;80.87
8294;BME280;4185;41.506;24.938;2022-12-26T03:42:36;94510.22;;;-0.69;81.29
8294;BME280;4185;41.506;24.938;2022-12-26T03:45:28;94512.88;;;-0.65;81.35
8294;BME280;4185;41.506;24.938;2022-12-26T03:48:20;94505.22;;;-0.60;82.03
8294;BME280;4185;41.506;24.938;2022-12-26T03:51:07;94499.94;;;-0.70;81.42
8294;BME280;4185;41.506;24.938;2022-12-26T03:53:59;94493.50;;;-0.76;81.32
8294;BME280;4185;41.506;24.938;2022-12-26T03:56:50;94494.25;;;-0.76;81.41
8294;BME280;4185;41.506;24.938;2022-12-26T03:59:40;94497.25;;;-0.67;81.71
8294;BME280;4185;41.506;24.938;2022-12-26T04:02:27;94491.91;;;-0.67;81.46
8294;BME280;4185;41.506;24.938;2022-12-26T04:05:14;94497.22;;;-0.63;80.96
8294;BME280;4185;41.506;24.938;2022-12-26T04:08:02;94497.91;;;-0.52;79.90
8294;BME280;4185;41.506;24.938;2022-12-26T04:10:52;94495.56;;;-0.40;79.42
8294;BME280;4185;41.506;24.938;2022-12-26T04:13:50;94498.19;;;-0.33;79.37
8294;BME280;4185;41.506;24.938;2022-12-26T04:16:37;94499.03;;;-0.43;78.41
8294;BME280;4185;41.506;24.938;2022-12-26T04:19:36;94507.09;;;-0.57;78.59
8294;BME280;4185;41.506;24.938;2022-12-26T04:22:10;94506.34;;;-0.57;79.16
8294;BME280;4185;41.506;24.938;2022-12-26T04:25:08;94507.06;;;-0.50;79.30
8294;BME280;4185;41.506;24.938;2022-12-26T04:27:54;94503.25;;;-0.49;78.51
8294;BME280;4185;41.506;24.938;2022-12-26T04:30:40;94510.84;;;-0.47;78.56
8294;BME280;4185;41.506;24.938;2022-12-26T04:33:29;94518.09;;;-0.44;78.79
8294;BME280;4185;41.506;24.938;2022-12-26T04:36:17;94523.09;;;-0.53;78.46
8294;BME280;4185;41.506;24.938;2022-12-26T04:39:05;94527.81;;;-0.78;78.46
8294;BME280;4185;41.506;24.938;2022-12-26T04:41:52;94523.25;;;-0.81;79.00
8294;BME280;4185;41.506;24.938;2022-12-26T04:44:40;94533.91;;;-0.78;79.31
8294;BME280;4185;41.506;24.938;2022-12-26T04:47:09;94533.91;;;-0.78;78.71
8294;BME280;4185;41.506;24.938;2022-12-26T04:49:41;94536.22;;;-0.87;78.33
8294;BME280;4185;41.506;24.938;2022-12-26T04:52:25;94544.69;;;-1.13;78.86
8294;BME280;4185;41.506;24.938;2022-12-26T04:55:13;94539.75;;;-1.18;79.68
8294;BME280;4185;41.506;24.938;2022-12-26T04:57:40;94539.41;;;-1.23;80.25
8294;BME280;4185;41.506;24.938;2022-12-26T05:00:10;94544.69;;;-1.13;81.06
8294;BME280;4185;41.506;24.938;2022-12-26T05:02:37;94535.16;;;-1.03;80.94
8294;BME280;4185;41.506;24.938;2022-12-26T05:05:21;94535.88;;;-1.03;82.00
8294;BME280;4185;41.506;24.938;2022-12-26T05:08:11;94532.47;;;-1.03;82.35
8294;BME280;4185;41.506;24.938;2022-12-26T05:11:03;94533.97;;;-0.99;82.31
8294;BME280;4185;41.506;24.938;2022-12-26T05:13:30;94532.47;;;-1.00;82.20
8294;BME280;4185;41.506;24.938;2022-12-26T05:15:58;94538.16;;;-0.98;81.61
8294;BME280;4185;41.506;24.938;2022-12-26T05:18:42;94537.81;;;-1.03;82.46
8294;BME280;4185;41.506;24.938;2022-12-26T05:21:26;94534.00;;;-1.06;81.86
8294;BME280;4185;41.506;24.938;2022-12-26T05:24:11;94538.97;;;-1.15;81.58
8294;BME280;4185;41.506;24.938;2022-12-26T05:26:55;94542.41;;;-1.14;82.29
8294;BME280;4185;41.506;24.938;2022-12-26T05:29:39;94530.97;;;-1.11;81.82
8294;BME280;4185;41.506;24.938;2022-12-26T05:32:08;94524.53;;;-1.17;81.67
8294;BME280;4185;41.506;24.938;2022-12-26T05:34:34;94530.22;;;-1.15;81.76
8294;BME280;4185;41.506;24.938;2022-12-26T05:37:00;94531.72;;;-1.07;82.24
8294;BME280;4185;41.506;24.938;2022-12-26T05:39:27;94534.00;;;-1.06;81.95
8294;BME280;4185;41.506;24.938;2022-12-26T05:41:54;94541.59;;;-0.97;81.48
8294;BME280;4185;41.506;24.938;2022-12-26T05:44:21;94540.81;;;-0.94;81.16
8294;BME280;4185;41.506;24.938;2022-12-26T05:46:48;94535.47;;;-0.94;80.28
8294;BME280;4185;41.506;24.938;2022-12-26T05:49:16;94535.13;;;-1.00;80.29
8294;BME280;4185;41.506;24.938;2022-12-26T05:51:43;94534.75;;;-1.02;81.02
8294;BME280;4185;41.506;24.938;2022-12-26T05:54:10;94539.31;;;-0.99;80.37
8294;BME280;4185;41.506;24.938;2022-12-26T05:56:36;94537.81;;;-1.00;80.12
8294;BME280;4185;41.506;24.938;2022-12-26T05:59:03;94531.72;;;-1.04;80.11
8294;BME280;4185;41.506;24.938;2022-12-26T06:01:30;94547.75;;;-1.18;80.88
8294;BME280;4185;41.506;24.938;2022-12-26T06:03:58;94534.44;;;-1.22;81.39
8294;BME280;4185;41.506;24.938;2022-12-26T06:06:27;94548.13;;;-1.16;81.10
8294;BME280;4185;41.506;24.938;2022-12-26T06:08:55;94550.00;;;-1.06;81.03
8294;BME280;4185;41.506;24.938;2022-12-26T06:11:23;94545.44;;;-1.12;79.64
8294;BME280;4185;41.506;24.938;2022-12-26T06:13:51;94555.72;;;-1.11;79.68
8294;BME280;4185;41.506;24.938;2022-12-26T06:16:18;94543.56;;;-1.19;80.30
8294;BME280;4185;41.506;24.938;2022-12-26T06:18:45;94546.97;;;-1.11;79.99
8294;BME280;4185;41.506;24.938;2022-12-26T06:21:14;94542.78;;;-1.16;79.37
8294;BME280;4185;41.506;24.938;2022-12-26T06:23:43;94546.63;;;-1.17;79.74
8294;BME280;4185;41.506;24.938;2022-12-26T06:26:10;94540.91;;;-1.15;80.48
8294;BME280;4185;41.506;24.938;2022-12-26T06:28:37;94543.88;;;-1.03;81.56
8294;BME280;4185;41.506;24.938;2022-12-26T06:31:06;94538.88;;;-0.87;80.69
8294;BME280;4185;41.506;24.938;2022-12-26T06:33:33;94544.22;;;-0.87;79.60
8294;BME280;4185;41.506;24.938;2022-12-26T06:36:04;94550.66;;;-0.81;79.54
8294;BME280;4185;41.506;24.938;2022-12-26T06:38:31;94546.06;;;-0.70;80.49
8294;BME280;4185;41.506;24.938;2022-12-26T06:41:00;94549.03;;;-0.61;80.42
8294;BME280;4185;41.506;24.938;2022-12-26T06:43:27;94556.59;;;-0.49;80.01
8294;BME280;4185;41.506;24.938;2022-12-26T06:45:54;94553.09;;;-0.32;79.71
8294;BME280;4185;41.506;24.938;2022-12-26T06:48:21;94548.09;;;-0.23;79.53
8294;BME280;4185;41.506;24.938;2022-12-26T06:50:48;94554.88;;;-0.11;79.15
8294;BME280;4185;41.506;24.938;2022-12-26T06:53:15;94552.56;;;-0.06;78.87
8294;BME280;4185;41.506;24.938;2022-12-26T06:55:42;94545.66;;;-0.03;78.29
8294;BME280;4185;41.506;24.938;2022-12-26T06:58:10;94550.28;;;-0.11;79.22
8294;BME280;4185;41.506;24.938;2022-12-26T07:00:37;94553.66;;;-0.03;79.16
8294;BME280;4185;41.506;24.938;2022-12-26T07:03:04;94561.66;;;0.00;78.78
8294;BME280;4185;41.506;24.938;2022-12-26T07:05:34;94555.88;;;0.06;78.63
8294;BME280;4185;41.506;24.938;2022-12-26T07:08:01;94557.44;;;0.03;78.92
8294;BME280;4185;41.506;24.938;2022-12-26T07:10:28;94558.16;;;0.07;79.18
8294;BME280;4185;41.506;24.938;2022-12-26T07:12:55;94559.31;;;0.10;79.16
8294;BME280;4185;41.506;24.938;2022-12-26T07:15:23;94560.03;;;0.14;78.85
8294;BME280;4185;41.506;24.938;2022-12-26T07:17:51;94558.47;;;0.20;79.19
8294;BME280;4185;41.506;24.938;2022-12-26T07:20:18;94553.88;;;0.24;79.29
8294;BME280;4185;41.506;24.938;2022-12-26T07:22:44;94553.88;;;0.24;80.75
8294;BME280;4185;41.506;24.938;2022-12-26T07:25:11;94556.03;;;0.36;80.93
8294;BME280;4185;41.506;24.938;2022-12-26T07:27:38;94558.66;;;0.43;80.54
8294;BME280;4185;41.506;24.938;2022-12-26T07:30:06;94555.94;;;0.46;80.30
8294;BME280;4185;41.506;24.938;2022-12-26T07:32:35;94557.78;;;0.53;80.13
8294;BME280;4185;41.506;24.938;2022-12-26T07:35:02;94556.59;;;0.61;80.35
8294;BME280;4185;41.506;24.938;2022-12-26T07:37:28;94559.19;;;0.68;80.25
8294;BME280;4185;41.506;24.938;2022-12-26T07:39:55;94551.53;;;0.70;80.41
8294;BME280;4185;41.506;24.938;2022-12-26T07:42:22;94554.50;;;0.79;80.63
8294;BME280;4185;41.506;24.938;2022-12-26T07:44:49;94554.00;;;0.91;79.99
8294;BME280;4185;41.506;24.938;2022-12-26T07:47:16;94555.44;;;0.99;79.75
8294;BME280;4185;41.506;24.938;2022-12-26T07:49:44;94556.88;;;1.07;79.41
8294;BME280;4185;41.506;24.938;2022-12-26T07:52:11;94568.28;;;1.14;78.95
8294;BME280;4185;41.506;24.938;2022-12-26T07:54:38;94565.91;;;1.20;78.76
8294;BME280;4185;41.506;24.938;2022-12-26T07:57:05;94571.16;;;1.27;78.71
8294;BME280;4185;41.506;24.938;2022-12-26T07:59:31;94565.69;;;1.38;78.71
8294;BME280;4185;41.506;24.938;2022-12-26T08:01:58;94571.66;;;1.52;78.54
8294;BME280;4185;41.506;24.938;2022-12-26T08:04:29;94566.16;;;1.63;79.08
8294;BME280;4185;41.506;24.938;2022-12-26T08:06:57;94556.81;;;1.74;79.67
8294;BME280;4185;41.506;24.938;2022-12-26T08:09:24;94553.56;;;1.86;79.99
8294;BME280;4185;41.506;24.938;2022-12-26T08:11:51;94556.53;;;1.95;80.39
8294;BME280;4185;41.506;24.938;2022-12-26T08:14:18;94550.25;;;2.05;79.30
8294;BME280;4185;41.506;24.938;2022-12-26T08:16:45;94549.03;;;2.10;79.70
8294;BME280;4185;41.506;24.938;2022-12-26T08:19:11;94550.16;;;2.12;79.83
8294;BME280;4185;41.506;24.938;2022-12-26T08:21:38;94553.09;;;2.21;81.17
8294;BME280;4185;41.506;24.938;2022-12-26T08:24:07;94552.84;;;2.35;80.48
8294;BME280;4185;41.506;24.938;2022-12-26T08:26:33;94559.56;;;2.47;81.00
8294;BME280;4185;41.506;24.938;2022-12-26T08:29:00;94552.88;;;2.59;80.22
8294;BME280;4185;41.506;24.938;2022-12-26T08:31:27;94557.63;;;2.71;80.00
8294;BME280;4185;41.506;24.938;2022-12-26T08:33:55;94554.34;;;2.83;79.40
8294;BME280;4185;41.506;24.938;2022-12-26T08:36:22;94550.59;;;3.00;79.14
8294;BME280;4185;41.506;24.938;2022-12-26T08:38:49;94541.09;;;3.15;78.52
8294;BME280;4185;41.506;24.938;2022-12-26T08:41:18;94543.59;;;3.25;78.59
8294;BME280;4185;41.506;24.938;2022-12-26T08:43:48;94546.06;;;3.36;77.98
8294;BME280;4185;41.506;24.938;2022-12-26T08:46:16;94541.59;;;3.49;77.54
8294;BME280;4185;41.506;24.938;2022-12-26T08:48:44;94534.41;;;3.62;77.45
8294;BME280;4185;41.506;24.938;2022-12-26T08:51:13;94529.56;;;3.73;76.72
8294;BME280;4185;41.506;24.938;2022-12-26T08:53:41;94532.38;;;3.86;76.95
8294;BME280;4185;41.506;24.938;2022-12-26T08:56:11;94531.97;;;4.03;76.84
8294;BME280;4185;41.506;24.938;2022-12-26T08:58:40;94528.22;;;4.17;76.40
8294;BME280;4185;41.506;24.938;2022-12-26T09:01:09;94522.94;;;4.29;75.39
8294;BME280;4185;41.506;24.938;2022-12-26T09:03:36;94513.84;;;4.39;75.30
8294;BME280;4185;41.506;24.938;2022-12-26T09:06:04;94512.41;;;4.51;74.88
8294;BME280;4185;41.506;24.938;2022-12-26T09:08:32;94508.19;;;4.66;74.72
8294;BME280;4185;41.506;24.938;2022-12-26T09:11:01;94505.06;;;4.83;74.36
8294;BME280;4185;41.506;24.938;2022-12-26T09:13:29;94512.66;;;5.01;73.29
8294;BME280;4185;41.506;24.938;2022-12-26T09:16:04;94500.75;;;5.15;72.44
8294;BME280;4185;41.506;24.938;2022-12-26T09:18:31;94488.06;;;5.28;71.77
8294;BME280;4185;41.506;24.938;2022-12-26T09:20:59;94485.41;;;5.40;71.02
8294;BME280;4185;41.506;24.938;2022-12-26T09:23:26;94478.84;;;5.54;70.34
8294;BME280;4185;41.506;24.938;2022-12-26T09:25:53;94473.41;;;5.70;69.80
8294;BME280;4185;41.506;24.938;2022-12-26T09:28:20;94463.38;;;5.83;69.45
8294;BME280;4185;41.506;24.938;2022-12-26T09:30:47;94466.19;;;6.04;69.44
8294;BME280;4185;41.506;24.938;2022-12-26T09:33:15;94466.06;;;6.21;68.76
8294;BME280;4185;41.506;24.938;2022-12-26T09:35:42;94451.66;;;6.36;68.11
8294;BME280;4185;41.506;24.938;2022-12-26T09:38:09;94448.41;;;6.54;67.43
8294;BME280;4185;41.506;24.938;2022-12-26T09:40:46;94446.63;;;6.72;66.42
8294;BME280;4185;41.506;24.938;2022-12-26T09:43:23;94441.91;;;6.85;66.09
8294;BME280;4185;41.506;24.938;2022-12-26T09:45:57;94442.47;;;7.02;65.66
8294;BME280;4185;41.506;24.938;2022-12-26T09:48:37;94439.47;;;7.21;65.23
8294;BME280;4185;41.506;24.938;2022-12-26T09:51:07;94428.03;;;7.39;64.04
8294;BME280;4185;41.506;24.938;2022-12-26T09:53:36;94412.94;;;7.51;62.72
8294;BME280;4185;41.506;24.938;2022-12-26T09:56:09;94422.66;;;7.79;62.50
8294;BME280;4185;41.506;24.938;2022-12-26T09:58:41;94405.00;;;7.96;60.96
8294;BME280;4185;41.506;24.938;2022-12-26T10:01:13;94407.72;;;8.14;59.93
8294;BME280;4185;41.506;24.938;2022-12-26T10:03:45;94409.00;;;8.31;59.79
8294;BME280;4185;41.506;24.938;2022-12-26T10:06:15;94398.19;;;8.49;59.06
8294;BME280;4185;41.506;24.938;2022-12-26T10:11:44;94390.69;;;8.89;57.96
8294;BME280;4185;41.506;24.938;2022-12-26T10:14:17;94392.78;;;9.03;56.88
8294;BME280;4185;41.506;24.938;2022-12-26T10:16:51;94393.06;;;9.14;57.06
8294;BME280;4185;41.506;24.938;2022-12-26T10:19:32;94381.16;;;9.30;56.73
8294;BME280;4185;41.506;24.938;2022-12-26T10:22:18;94376.13;;;9.46;56.09
8294;BME280;4185;41.506;24.938;2022-12-26T10:24:49;94362.66;;;9.61;56.11
8294;BME280;4185;41.506;24.938;2022-12-26T10:27:17;94360.28;;;9.86;55.00
8294;BME280;4185;41.506;24.938;2022-12-26T10:29:51;94359.88;;;10.12;54.78
8294;BME280;4185;41.506;24.938;2022-12-26T10:32:23;94354.56;;;10.41;53.82
8294;BME280;4185;41.506;24.938;2022-12-26T10:34:52;94352.88;;;10.67;53.66
8294;BME280;4185;41.506;24.938;2022-12-26T10:37:25;94353.94;;;10.84;52.97
8294;BME280;4185;41.506;24.938;2022-12-26T10:39:56;94357.34;;;11.08;53.29
8294;BME280;4185;41.506;24.938;2022-12-26T10:42:28;94341.41;;;11.30;52.40
8294;BME280;4185;41.506;24.938;2022-12-26T10:44:56;94345.53;;;11.55;51.02
8294;BME280;4185;41.506;24.938;2022-12-26T10:47:29;94341.56;;;11.70;50.85
8294;BME280;4185;41.506;24.938;2022-12-26T10:50:01;94341.09;;;11.86;49.85
8294;BME280;4185;41.506;24.938;2022-12-26T10:52:31;94342.75;;;11.98;49.35
8294;BME280;4185;41.506;24.938;2022-12-26T10:55:00;94341.72;;;12.16;49.27
8294;BME280;4185;41.506;24.938;2022-12-26T10:57:28;94336.31;;;12.36;49.32
8294;BME280;4185;41.506;24.938;2022-12-26T10:59:57;94335.28;;;12.54;48.89
8294;BME280;4185;41.506;24.938;2022-12-26T11:02:26;94329.56;;;12.72;48.46
8294;BME280;4185;41.506;24.938;2022-12-26T11:05:03;94327.53;;;12.92;48.07
8294;BME280;4185;41.506;24.938;2022-12-26T11:07:33;94330.00;;;13.10;47.38
8294;BME280;4185;41.506;24.938;2022-12-26T11:10:01;94326.19;;;13.28;47.37
8294;BME280;4185;41.506;24.938;2022-12-26T11:12:36;94327.88;;;13.51;46.63
8294;BME280;4185;41.506;24.938;2022-12-26T11:15:15;94320.09;;;13.70;46.24
8294;BME280;4185;41.506;24.938;2022-12-26T11:17:44;94313.94;;;13.80;45.79
8294;BME280;4185;41.506;24.938;2022-12-26T11:20:27;94310.59;;;13.96;45.66
8294;BME280;4185;41.506;24.938;2022-12-26T11:23:12;94313.38;;;14.07;45.45
8294;BME280;4185;41.506;24.938;2022-12-26T11:25:48;94314.94;;;14.19;45.38
8294;BME280;4185;41.506;24.938;2022-12-26T11:28:23;94306.59;;;14.39;45.10
8294;BME280;4185;41.506;24.938;2022-12-26T11:30:51;94301.47;;;14.52;44.89
8294;BME280;4185;41.506;24.938;2022-12-26T11:33:23;94304.97;;;14.64;44.94
8294;BME280;4185;41.506;24.938;2022-12-26T11:35:56;94300.78;;;14.74;45.11
8294;BME280;4185;41.506;24.938;2022-12-26T11:38:26;94297.81;;;14.89;44.80
8294;BME280;4185;41.506;24.938;2022-12-26T11:41:11;94299.63;;;15.03;44.78
8294;BME280;4185;41.506;24.938;2022-12-26T11:46:48;94291.16;;;15.17;44.63
8294;BME280;4185;41.506;24.938;2022-12-26T11:49:26;94296.66;;;15.28;44.53
8294;BME280;4185;41.506;24.938;2022-12-26T11:51:56;94290.72;;;15.35;44.53
8294;BME280;4185;41.506;24.938;2022-12-26T11:54:28;94303.91;;;15.48;44.51
8294;BME280;4185;41.506;24.938;2022-12-26T11:57:14;94291.97;;;15.62;44.17
8294;BME280;4185;41.506;24.938;2022-12-26T11:59:43;94289.75;;;15.66;44.31
8294;BME280;4185;41.506;24.938;2022-12-26T12:02:20;94287.72;;;15.77;44.20
8294;BME280;4185;41.506;24.938;2022-12-26T12:04:50;94284.97;;;15.83;44.31
8294;BME280;4185;41.506;24.938;2022-12-26T12:13:12;94283.13;;;16.30;43.64
8294;BME280;4185;41.506;24.938;2022-12-26T12:15:45;94278.88;;;16.34;43.29
8294;BME280;4185;41.506;24.938;2022-12-26T12:18:20;94282.34;;;16.40;43.40
8294;BME280;4185;41.506;24.938;2022-12-26T12:20:57;94286.59;;;16.41;43.16
8294;BME280;4185;41.506;24.938;2022-12-26T12:23:40;94293.56;;;16.48;43.52
8294;BME280;4185;41.506;24.938;2022-12-26T12:26:13;94297.41;;;16.80;43.11
8294;BME280;4185;41.506;24.938;2022-12-26T12:28:59;94296.00;;;17.08;42.79
8294;BME280;4185;41.506;24.938;2022-12-26T12:31:38;94293.06;;;17.42;42.00
8294;BME280;4185;41.506;24.938;2022-12-26T12:34:18;94295.00;;;17.82;41.53
8294;BME280;4185;41.506;24.938;2022-12-26T12:36:56;94295.84;;;18.49;40.27
8294;BME280;4185;41.506;24.938;2022-12-26T12:39:37;94290.97;;;20.56;37.21
8294;BME280;4185;41.506;24.938;2022-12-26T12:42:22;94301.25;;;25.64;30.41
8294;BME280;4185;41.506;24.938;2022-12-26T12:45:06;94295.00;;;29.97;24.61
8294;BME280;4185;41.506;24.938;2022-12-26T12:47:57;94291.19;;;32.13;21.65
8294;BME280;4185;41.506;24.938;2022-12-26T12:50:31;94292.94;;;33.35;19.92
8294;BME280;4185;41.506;24.938;2022-12-26T12:53:08;94300.09;;;34.12;18.85
8294;BME280;4185;41.506;24.938;2022-12-26T12:56:06;94293.28;;;34.69;18.32
8294;BME280;4185;41.506;24.938;2022-12-26T12:58:41;94295.03;;;35.44;18.17
8294;BME280;4185;41.506;24.938;2022-12-26T13:01:15;94301.44;;;35.44;17.40
8294;BME280;4185;41.506;24.938;2022-12-26T13:03:47;94299.03;;;35.39;17.26
8294;BME280;4185;41.506;24.938;2022-12-26T13:06:21;94294.22;;;35.41;17.14
8294;BME280;4185;41.506;24.938;2022-12-26T13:08:54;94300.81;;;35.75;17.02
8294;BME280;4185;41.506;24.938;2022-12-26T13:11:27;94303.34;;;35.98;16.60
8294;BME280;4185;41.506;24.938;2022-12-26T13:13:58;94305.22;;;34.81;17.34
8294;BME280;4185;41.506;24.938;2022-12-26T13:16:28;94302.22;;;34.91;17.16
8294;BME280;4185;41.506;24.938;2022-12-26T13:18:58;94309.94;;;34.77;17.50
8294;BME280;4185;41.506;24.938;2022-12-26T13:21:28;94311.84;;;29.02;21.97
8294;BME280;4185;41.506;24.938;2022-12-26T13:24:00;94314.91;;;24.38;27.01
8294;BME280;4185;41.506;24.938;2022-12-26T13:26:52;94319.38;;;21.29;31.31
8294;BME280;4185;41.506;24.938;2022-12-26T13:29:32;94316.88;;;19.64;34.07
8294;BME280;4185;41.506;24.938;2022-12-26T13:32:00;94317.13;;;18.49;36.04
8294;BME280;4185;41.506;24.938;2022-12-26T13:34:29;94317.03;;;17.76;37.89
8294;BME280;4185;41.506;24.938;2022-12-26T13:36:57;94315.09;;;17.31;38.78
8294;BME280;4185;41.506;24.938;2022-12-26T13:39:35;94313.09;;;16.90;39.75
8294;BME280;4185;41.506;24.938;2022-12-26T13:42:30;94309.75;;;16.57;40.53
8294;BME280;4185;41.506;24.938;2022-12-26T13:45:47;94308.81;;;16.21;41.22
8294;BME280;4185;41.506;24.938;2022-12-26T13:51:47;94304.91;;;15.78;42.44
8294;BME280;4185;41.506;24.938;2022-12-26T13:54:15;94299.69;;;15.52;43.40
8294;BME280;4185;41.506;24.938;2022-12-26T13:57:16;94299.38;;;15.23;44.10
8294;BME280;4185;41.506;24.938;2022-12-26T13:59:58;94292.63;;;14.91;44.68
8294;BME280;4185;41.506;24.938;2022-12-26T14:02:50;94300.75;;;14.57;45.82
8294;BME280;4185;41.506;24.938;2022-12-26T14:05:25;94296.88;;;14.33;46.59
8294;BME280;4185;41.506;24.938;2022-12-26T14:07:59;94301.03;;;14.23;46.74